John C. Munro Hamilton International Airport
CYHM : now visible

Airfield :











YOU CAN JOIN US ON...

 
LOGIN :

Register | Disclaimer

   EN    FR    IT 

 









Legend :    VFR   Marginal VFR   IFR   Intensive IFR   Very Intensive IFR
Visi :
Ceiling :
>= 8 km
>= 3000ft
5 to 8 km
1000 to 3000 ft
1500m to 5 km
500 to 1000 ft
800 to 1500m
200 to 500 ft
< 800m
< 200 ft
Symbols :   Thunderstorms  Fog  Heavy snow  Heavy precipitations  Wind > 20 kt







- Airport Elevation : 780 ft
- IATA code : YHM


CYHM - John C. Munro Hamilton International

CURRENT METAR :
  • 210800Z 25006KT 15SM FEW250 21/21 A2983 RMK CI1 SLP099 DENSITY ALT 1900FT

EXPIRED METARs :
  • 210700Z 26009KT 15SM SCT250 22/22 A2983 RMK CI3 SLP099 DENSITY ALT 1900FT
  • 210600Z 26009KT 15SM SCT085 OVC250 22/22 A2984 RMK AC3CI5 SLP101 DENSITY ALT 1900FT

TAF TAF CYHM
Valid from the 21 at 06:00 until the 22 at 06:00 UTC


210538Z 2106/2206 22010KT P6SM BKN160
FM210800 30010KT P6SM FEW020 SCT160
FM212200 30010KT P6SM BKN070
TEMPO 2122/2204 P6SM -SHRA RMK NXT FCST BY 211200Z
CZYZ FIR / North America



MET'MAP, your aeronautical weather chart ! - Copyright ORBIFLY December 2007 - Disclaimer

ORBIFLY MET'MAP TEAM :

Programming & Development : Alexandra Zaïnal
Concept & Development : Baudouin d'Aumeries
Co-Development & Prog : Marc-Olivier Méhu
Technical & hardware support : Manuel Goepfert

Contact : metmap@orbifly.com




SOURCES & CREDITS :

   NOAA       Earth
Advisory